createdAt,value
2024-03-19T00:00:03.162Z,34.37
2024-03-19T00:02:29.584Z,34.54
2024-03-19T00:04:55.866Z,34.73
2024-03-19T00:07:22.159Z,34.83
2024-03-19T00:09:48.565Z,34.89
2024-03-19T00:12:14.876Z,35.02
2024-03-19T00:14:41.340Z,35.13
2024-03-19T00:17:07.767Z,35.09
2024-03-19T00:19:34.020Z,35.07
2024-03-19T00:22:00.337Z,35.01
2024-03-19T00:24:26.707Z,35.01
2024-03-19T00:26:52.990Z,34.99
2024-03-19T00:29:19.266Z,34.97
2024-03-19T00:31:45.560Z,35.01
2024-03-19T00:34:11.989Z,34.97
2024-03-19T00:36:38.426Z,35.00
2024-03-19T00:39:04.718Z,34.98
2024-03-19T00:41:31.008Z,34.98
2024-03-19T00:43:57.319Z,34.98
2024-03-19T00:46:23.845Z,35.04
2024-03-19T00:48:50.269Z,35.04
2024-03-19T00:51:16.517Z,35.04
2024-03-19T00:53:42.996Z,35.08
2024-03-19T00:56:09.760Z,35.03
2024-03-19T00:58:36.264Z,35.10
2024-03-19T01:01:02.465Z,35.07
2024-03-19T01:03:28.969Z,35.09
2024-03-19T01:05:55.416Z,35.10
2024-03-19T01:08:21.679Z,35.13
2024-03-19T01:10:48.037Z,35.14
2024-03-19T01:13:14.318Z,35.16
2024-03-19T01:15:40.717Z,35.13
2024-03-19T01:18:06.987Z,35.18
2024-03-19T01:20:33.289Z,35.19
2024-03-19T01:23:00.498Z,35.21
2024-03-19T01:25:26.822Z,35.23
2024-03-19T01:27:53.412Z,35.23
2024-03-19T01:30:19.701Z,35.24
2024-03-19T01:32:46.036Z,35.26
2024-03-19T01:35:12.318Z,35.32
2024-03-19T01:37:38.728Z,35.33
2024-03-19T01:40:05.176Z,35.33
2024-03-19T01:42:31.617Z,35.34
2024-03-19T01:44:57.875Z,35.34
2024-03-19T01:47:24.263Z,35.36
2024-03-19T01:49:50.691Z,35.35
2024-03-19T01:52:17.049Z,35.38
2024-03-19T01:54:43.419Z,35.38
2024-03-19T01:57:09.770Z,35.37
2024-03-19T01:59:36.199Z,35.38
2024-03-19T02:02:02.477Z,35.42
2024-03-19T02:04:28.844Z,35.39
2024-03-19T02:06:55.187Z,35.42
2024-03-19T02:09:21.505Z,35.43
2024-03-19T02:11:47.859Z,35.43
2024-03-19T02:14:14.283Z,35.41
2024-03-19T02:16:40.632Z,35.46
2024-03-19T02:19:07.041Z,35.45
2024-03-19T02:21:33.385Z,35.48
2024-03-19T02:23:59.655Z,35.45
2024-03-19T02:26:26.127Z,35.44
2024-03-19T02:28:52.405Z,35.44
2024-03-19T02:31:18.727Z,35.42
2024-03-19T02:33:45.128Z,35.44
2024-03-19T02:36:11.585Z,35.42
2024-03-19T02:38:37.989Z,35.46
2024-03-19T02:41:04.261Z,35.45
2024-03-19T02:43:30.552Z,35.48
2024-03-19T02:45:56.815Z,35.46
2024-03-19T02:48:23.205Z,35.46
2024-03-19T02:50:49.646Z,35.51
2024-03-19T02:53:15.913Z,35.49
2024-03-19T02:55:42.321Z,35.47
2024-03-19T02:58:08.646Z,35.45
2024-03-19T03:00:35.059Z,35.46
2024-03-19T03:03:01.343Z,35.45
2024-03-19T03:05:27.745Z,35.48
2024-03-19T03:07:54.167Z,35.49
2024-03-19T03:10:20.475Z,35.47
2024-03-19T03:12:46.831Z,35.46
2024-03-19T03:15:13.274Z,35.45
2024-03-19T03:17:39.584Z,35.48
2024-03-19T03:20:05.804Z,35.47
2024-03-19T03:22:32.089Z,35.49
2024-03-19T03:24:58.375Z,35.46
2024-03-19T03:27:24.649Z,35.47
2024-03-19T03:29:51.025Z,35.46
2024-03-19T03:32:17.497Z,35.48
2024-03-19T03:34:43.835Z,35.47
2024-03-19T03:37:13.986Z,35.48
2024-03-19T03:39:36.746Z,35.43
2024-03-19T03:42:03.115Z,35.43
2024-03-19T03:44:29.536Z,35.45
2024-03-19T03:46:55.976Z,35.45
2024-03-19T03:49:22.465Z,35.43
2024-03-19T03:51:48.710Z,35.44
2024-03-19T03:54:15.001Z,35.42
2024-03-19T03:56:41.445Z,35.42
2024-03-19T03:59:07.683Z,35.44
2024-03-19T04:01:34.149Z,35.44
2024-03-19T04:04:00.485Z,35.45
2024-03-19T04:06:26.921Z,35.44
2024-03-19T04:08:53.289Z,35.42
2024-03-19T04:11:19.686Z,35.43
2024-03-19T04:13:46.124Z,35.44
2024-03-19T04:16:12.556Z,35.44
2024-03-19T04:18:39.038Z,35.41
2024-03-19T04:21:05.243Z,35.42
2024-03-19T04:23:31.524Z,35.38
2024-03-19T04:25:57.786Z,35.38
2024-03-19T04:28:24.181Z,35.34
2024-03-19T04:30:50.531Z,35.35
2024-03-19T04:33:16.973Z,35.30
2024-03-19T04:35:45.747Z,35.24
2024-03-19T04:38:09.684Z,35.22
2024-03-19T04:40:35.982Z,35.20
2024-03-19T04:43:02.378Z,35.17
2024-03-19T04:45:28.647Z,35.19
2024-03-19T04:47:55.210Z,35.22
2024-03-19T04:50:21.425Z,35.23
2024-03-19T04:52:47.823Z,35.26
2024-03-19T04:55:14.091Z,35.30
2024-03-19T04:57:40.479Z,35.23
2024-03-19T05:00:06.750Z,35.22
2024-03-19T05:02:33.089Z,35.24
2024-03-19T05:04:59.369Z,35.25
2024-03-19T05:07:25.747Z,35.18
2024-03-19T05:09:51.996Z,35.25
2024-03-19T05:12:18.478Z,35.26
2024-03-19T05:14:44.737Z,35.33
2024-03-19T05:17:11.042Z,35.59
2024-03-19T05:19:37.362Z,35.48
2024-03-19T05:22:03.635Z,35.44
2024-03-19T05:24:30.022Z,35.43
2024-03-19T05:26:56.294Z,35.44
2024-03-19T05:29:22.624Z,35.44
2024-03-19T05:31:49.086Z,35.45
2024-03-19T05:34:15.635Z,35.65
2024-03-19T05:36:41.972Z,35.58
2024-03-19T05:39:08.284Z,35.71
2024-03-19T05:41:34.605Z,35.50
2024-03-19T05:44:02.076Z,35.53
2024-03-19T05:46:27.203Z,35.52
2024-03-19T05:48:53.488Z,35.61
2024-03-19T05:51:19.832Z,35.66
2024-03-19T05:53:46.101Z,35.45
2024-03-19T05:56:12.432Z,35.41
2024-03-19T05:58:38.719Z,35.46
2024-03-19T06:01:05.012Z,35.42
2024-03-19T06:03:31.338Z,35.48
2024-03-19T06:05:57.618Z,35.40
2024-03-19T06:08:23.988Z,35.70
2024-03-19T06:10:50.244Z,35.56
2024-03-19T06:13:16.565Z,35.88
2024-03-19T06:15:42.842Z,35.58
2024-03-19T06:18:09.222Z,35.52
2024-03-19T06:20:35.562Z,35.36
2024-03-19T06:23:01.891Z,35.49
2024-03-19T06:25:28.171Z,35.45
2024-03-19T06:27:54.492Z,35.48
2024-03-19T06:30:20.744Z,35.51
2024-03-19T06:32:47.118Z,35.48
2024-03-19T06:35:13.413Z,35.43
2024-03-19T06:37:39.692Z,35.52
2024-03-19T06:40:06.107Z,35.45
2024-03-19T06:42:32.348Z,35.51
2024-03-19T06:44:58.626Z,35.64
2024-03-19T06:47:24.949Z,35.45
2024-03-19T06:49:51.276Z,35.45
2024-03-19T06:52:17.494Z,35.39
2024-03-19T06:54:45.131Z,35.88
2024-03-19T06:57:10.103Z,35.25
2024-03-19T06:59:36.389Z,35.38
2024-03-19T07:02:02.702Z,35.77
2024-03-19T07:04:29.001Z,35.48
2024-03-19T07:06:55.417Z,35.33
2024-03-19T07:09:21.833Z,35.38
2024-03-19T07:11:48.127Z,35.37
2024-03-19T07:14:14.434Z,35.30
2024-03-19T07:16:40.750Z,35.29
2024-03-19T07:19:07.124Z,35.55
2024-03-19T07:21:33.360Z,35.25
2024-03-19T07:23:59.657Z,35.40
2024-03-19T07:26:25.988Z,35.23
2024-03-19T07:28:52.372Z,35.08
2024-03-19T07:31:18.647Z,35.22
2024-03-19T07:33:45.026Z,35.82
2024-03-19T07:36:11.313Z,35.67
2024-03-19T07:38:37.633Z,35.16
2024-03-19T07:41:03.971Z,36.05
2024-03-19T07:43:30.289Z,35.37
2024-03-19T07:45:56.657Z,35.44
2024-03-19T07:48:22.930Z,35.34
2024-03-19T07:50:49.272Z,35.45
2024-03-19T07:53:17.153Z,35.65
2024-03-19T07:55:41.877Z,35.60
2024-03-19T07:58:08.195Z,35.77
2024-03-19T08:00:34.474Z,35.73
2024-03-19T08:03:00.827Z,35.50
2024-03-19T08:05:27.942Z,35.53
2024-03-19T08:07:53.419Z,35.59
2024-03-19T08:10:19.711Z,35.46
2024-03-19T08:12:46.018Z,35.85
2024-03-19T08:15:12.384Z,35.50
2024-03-19T08:17:38.645Z,35.56
2024-03-19T08:20:04.978Z,35.58
2024-03-19T08:22:31.382Z,35.77
2024-03-19T08:24:57.701Z,35.61
2024-03-19T08:27:24.126Z,35.96
2024-03-19T08:29:56.597Z,36.00
2024-03-19T08:32:16.910Z,35.88
2024-03-19T08:34:43.371Z,35.96
2024-03-19T08:37:09.703Z,35.99
2024-03-19T08:39:36.085Z,36.02
2024-03-19T08:42:05.255Z,35.95
2024-03-19T08:44:29.053Z,35.88
2024-03-19T08:46:55.339Z,35.90
2024-03-19T08:49:21.649Z,35.90
2024-03-19T08:51:47.953Z,36.04
2024-03-19T08:54:14.480Z,35.95
2024-03-19T08:56:40.559Z,35.93
2024-03-19T08:59:06.923Z,36.07
2024-03-19T09:01:33.263Z,35.88
2024-03-19T09:03:59.528Z,35.65
2024-03-19T09:06:25.866Z,35.37
2024-03-19T09:08:52.221Z,35.63
2024-03-19T09:11:20.599Z,35.46
2024-03-19T09:13:44.915Z,35.87
2024-03-19T09:16:11.291Z,35.37
2024-03-19T09:18:37.667Z,35.20
2024-03-19T09:21:04.013Z,35.54
2024-03-19T09:23:30.339Z,35.13
2024-03-19T09:25:56.617Z,34.98
2024-03-19T09:28:22.994Z,35.11
2024-03-19T09:30:49.317Z,35.02
2024-03-19T09:33:15.650Z,35.13
2024-03-19T09:35:41.953Z,35.21
2024-03-19T09:38:08.272Z,35.17
2024-03-19T09:40:34.666Z,34.88
2024-03-19T09:43:01.019Z,34.92
2024-03-19T09:45:27.312Z,35.02
2024-03-19T09:47:53.559Z,34.98
2024-03-19T09:50:19.921Z,34.91
2024-03-19T09:52:46.308Z,34.96
2024-03-19T09:55:12.538Z,34.87
2024-03-19T09:57:38.895Z,34.87
2024-03-19T10:00:05.302Z,34.79
2024-03-19T10:02:31.631Z,34.84
2024-03-19T10:04:57.857Z,34.70
2024-03-19T10:07:24.160Z,34.67
2024-03-19T10:09:50.445Z,34.67
2024-03-19T10:12:16.753Z,34.63
2024-03-19T10:14:43.081Z,34.63
2024-03-19T10:17:09.399Z,34.50
2024-03-19T10:19:35.657Z,34.53
2024-03-19T10:22:02.000Z,34.54
2024-03-19T10:24:28.360Z,34.61
2024-03-19T10:26:54.877Z,34.55
2024-03-19T10:29:20.947Z,34.66
2024-03-19T10:31:47.311Z,34.44
2024-03-19T10:34:13.634Z,34.46
2024-03-19T10:36:39.908Z,34.53
2024-03-19T10:39:06.378Z,34.65
2024-03-19T10:41:32.612Z,34.54
2024-03-19T10:43:59.141Z,34.49
2024-03-19T10:46:25.429Z,34.52
2024-03-19T10:48:51.750Z,34.57
2024-03-19T10:51:18.123Z,34.52
2024-03-19T10:53:44.358Z,34.54
2024-03-19T10:56:10.738Z,34.51
2024-03-19T10:58:37.174Z,34.51
2024-03-19T11:01:03.559Z,34.66
2024-03-19T11:03:29.896Z,34.59
2024-03-19T11:05:56.313Z,34.59
2024-03-19T11:08:22.584Z,34.67
2024-03-19T11:10:49.091Z,34.76
2024-03-19T11:13:15.349Z,34.77
2024-03-19T11:15:41.639Z,34.80
2024-03-19T11:18:07.958Z,34.89
2024-03-19T11:20:34.336Z,34.90
2024-03-19T11:23:00.765Z,34.95
2024-03-19T11:25:27.199Z,34.92
2024-03-19T11:27:53.465Z,34.91
2024-03-19T11:30:19.788Z,34.90
2024-03-19T11:32:46.225Z,34.91
2024-03-19T11:35:12.566Z,34.88
2024-03-19T11:37:39.035Z,34.91
2024-03-19T11:40:05.464Z,34.93
2024-03-19T11:42:31.747Z,34.82
2024-03-19T11:44:58.185Z,34.86
2024-03-19T11:47:24.421Z,34.96
2024-03-19T11:49:50.812Z,35.01
2024-03-19T11:52:17.099Z,34.98
2024-03-19T11:54:43.487Z,35.06
2024-03-19T11:57:09.774Z,34.98
2024-03-19T11:59:36.133Z,34.95
2024-03-19T12:02:02.443Z,34.98
2024-03-19T12:04:28.828Z,34.90
2024-03-19T12:06:55.109Z,34.94
2024-03-19T12:09:21.400Z,34.96
2024-03-19T12:11:47.784Z,34.99
2024-03-19T12:14:14.233Z,34.94
2024-03-19T12:16:40.541Z,34.85
2024-03-19T12:19:06.912Z,34.86
2024-03-19T12:21:33.330Z,34.69
2024-03-19T12:23:59.789Z,34.80
2024-03-19T12:26:26.088Z,34.80
2024-03-19T12:28:52.578Z,34.80
2024-03-19T12:31:18.978Z,34.76
2024-03-19T12:33:45.179Z,34.78
2024-03-19T12:36:11.778Z,34.74
2024-03-19T12:38:38.117Z,34.68
2024-03-19T12:41:04.373Z,34.73
2024-03-19T12:43:30.865Z,34.73
2024-03-19T12:45:57.261Z,34.70
2024-03-19T12:48:23.569Z,34.67
2024-03-19T12:50:49.897Z,34.66
2024-03-19T12:53:16.243Z,34.84
2024-03-19T12:55:42.669Z,34.70
2024-03-19T12:58:09.000Z,34.62
2024-03-19T13:00:35.302Z,34.68
2024-03-19T13:03:01.681Z,34.72
2024-03-19T13:05:27.934Z,34.69
2024-03-19T13:07:54.390Z,34.74
2024-03-19T13:10:20.616Z,34.80
2024-03-19T13:12:47.037Z,34.76
2024-03-19T13:15:13.268Z,34.73
2024-03-19T13:17:39.566Z,34.71
2024-03-19T13:20:05.952Z,34.70
2024-03-19T13:22:32.519Z,34.83
2024-03-19T13:24:58.951Z,34.74
2024-03-19T13:27:25.210Z,34.79
2024-03-19T13:29:51.548Z,34.80
2024-03-19T13:32:17.778Z,34.81
2024-03-19T13:34:44.920Z,34.74
2024-03-19T13:37:11.311Z,34.71
2024-03-19T13:39:37.617Z,34.79
2024-03-19T13:42:04.156Z,34.76
2024-03-19T13:44:30.509Z,34.70
2024-03-19T13:46:56.926Z,34.83
2024-03-19T13:49:23.271Z,34.83
2024-03-19T13:51:49.700Z,34.77
2024-03-19T13:54:15.993Z,34.69
2024-03-19T13:56:43.796Z,34.65
2024-03-19T13:59:08.659Z,34.55
2024-03-19T14:01:35.080Z,34.54
2024-03-19T14:04:01.452Z,34.45
2024-03-19T14:06:27.889Z,34.46
2024-03-19T14:08:54.333Z,34.33
2024-03-19T14:11:20.645Z,34.33
2024-03-19T14:13:46.959Z,34.37
2024-03-19T14:16:13.483Z,34.38
2024-03-19T14:18:40.031Z,34.30
2024-03-19T14:21:06.335Z,34.17
2024-03-19T14:23:33.246Z,34.15
2024-03-19T14:25:59.706Z,34.25
2024-03-19T14:28:25.989Z,34.17
2024-03-19T14:30:52.479Z,34.22
2024-03-19T14:33:20.470Z,34.22
2024-03-19T14:35:45.087Z,34.19
2024-03-19T14:38:11.508Z,34.15
2024-03-19T14:40:38.008Z,34.21
2024-03-19T14:43:04.479Z,34.32
2024-03-19T14:45:30.839Z,34.38
2024-03-19T14:48:06.499Z,34.31
2024-03-19T14:50:23.542Z,34.31
2024-03-19T14:52:49.933Z,34.33
2024-03-19T14:55:16.360Z,34.33
2024-03-19T14:57:42.603Z,34.23
2024-03-19T15:00:09.061Z,34.33
2024-03-19T15:02:35.447Z,34.30
2024-03-19T15:05:01.767Z,34.26
2024-03-19T15:07:28.222Z,34.24
2024-03-19T15:09:54.631Z,34.25
2024-03-19T15:12:21.114Z,34.26
2024-03-19T15:14:47.646Z,34.22
2024-03-19T15:17:14.036Z,34.12
2024-03-19T15:19:40.438Z,34.13
2024-03-19T15:22:06.747Z,34.16
2024-03-19T15:24:33.126Z,34.08
2024-03-19T15:26:59.564Z,34.07
2024-03-19T15:29:25.835Z,34.07
2024-03-19T15:31:52.122Z,34.04
2024-03-19T15:34:18.430Z,34.01
2024-03-19T15:36:44.777Z,34.05
2024-03-19T15:39:11.241Z,34.01
2024-03-19T15:41:37.620Z,34.08
2024-03-19T15:44:03.923Z,34.00
2024-03-19T15:46:30.313Z,33.94
2024-03-19T15:48:56.741Z,33.92
2024-03-19T15:51:23.043Z,33.91
2024-03-19T15:53:49.388Z,33.83
2024-03-19T15:56:15.824Z,33.99
2024-03-19T15:58:42.125Z,34.20
2024-03-19T16:01:08.419Z,34.28
2024-03-19T16:03:34.727Z,34.51
2024-03-19T16:06:01.154Z,34.88
2024-03-19T16:08:27.485Z,35.05
2024-03-19T16:10:53.819Z,35.11
2024-03-19T16:13:20.083Z,34.96
2024-03-19T16:15:46.462Z,34.89
2024-03-19T16:18:12.719Z,34.83
2024-03-19T16:20:39.125Z,34.81
2024-03-19T16:23:05.383Z,34.66
2024-03-19T16:25:31.857Z,34.64
2024-03-19T16:27:58.240Z,34.77
2024-03-19T16:30:24.643Z,34.79
2024-03-19T16:32:51.095Z,34.79
2024-03-19T16:35:17.604Z,34.63
2024-03-19T16:37:46.240Z,34.49
2024-03-19T16:40:10.421Z,34.37
2024-03-19T16:42:36.685Z,34.28
2024-03-19T16:45:03.134Z,34.23
2024-03-19T16:47:29.400Z,34.21
2024-03-19T16:49:55.869Z,34.09
2024-03-19T16:52:22.228Z,34.11
2024-03-19T16:54:48.579Z,34.25
2024-03-19T16:57:14.914Z,34.29
2024-03-19T16:59:41.445Z,34.18
2024-03-19T17:02:07.946Z,34.03
2024-03-19T17:04:34.220Z,34.05
2024-03-19T17:07:00.490Z,34.21
2024-03-19T17:09:26.874Z,34.32
2024-03-19T17:11:53.200Z,34.49
2024-03-19T17:14:19.445Z,34.34
2024-03-19T17:16:45.848Z,34.20
2024-03-19T17:19:12.185Z,34.16
2024-03-19T17:21:38.499Z,34.25
2024-03-19T17:24:04.851Z,34.46
2024-03-19T17:26:31.163Z,34.48
2024-03-19T17:28:57.604Z,34.26
2024-03-19T17:31:24.043Z,34.12
2024-03-19T17:33:50.323Z,34.15
2024-03-19T17:36:16.577Z,34.22
2024-03-19T17:38:42.857Z,34.13
2024-03-19T17:41:09.162Z,33.96
2024-03-19T17:43:35.589Z,33.97
2024-03-19T17:46:01.845Z,33.93
2024-03-19T17:48:28.127Z,34.23
2024-03-19T17:50:54.486Z,34.44
2024-03-19T17:53:20.903Z,34.61
2024-03-19T17:55:47.241Z,34.60
2024-03-19T17:58:13.733Z,34.37
2024-03-19T18:00:40.116Z,34.17
2024-03-19T18:03:06.557Z,34.19
2024-03-19T18:05:32.981Z,34.32
2024-03-19T18:07:59.256Z,34.39
2024-03-19T18:10:25.671Z,34.47
2024-03-19T18:12:51.949Z,34.57
2024-03-19T18:15:18.224Z,34.65
2024-03-19T18:17:44.626Z,34.43
2024-03-19T18:20:10.937Z,34.22
2024-03-19T18:22:37.195Z,34.01
2024-03-19T18:25:03.613Z,33.88
2024-03-19T18:27:29.919Z,33.80
2024-03-19T18:29:56.287Z,33.88
2024-03-19T18:32:22.711Z,33.91
2024-03-19T18:34:49.084Z,34.08
2024-03-19T18:37:15.473Z,34.26
2024-03-19T18:39:41.913Z,34.08
2024-03-19T18:42:08.377Z,33.90
2024-03-19T18:44:34.789Z,33.90
2024-03-19T18:47:02.354Z,34.13
2024-03-19T18:49:27.665Z,34.39
2024-03-19T18:51:53.954Z,34.54
2024-03-19T18:54:20.298Z,34.73
2024-03-19T18:56:46.728Z,34.88
2024-03-19T18:59:13.069Z,34.92
2024-03-19T19:01:39.562Z,35.05
2024-03-19T19:04:05.783Z,34.98
2024-03-19T19:06:32.068Z,34.73
2024-03-19T19:08:58.585Z,34.80
2024-03-19T19:11:24.876Z,34.86
2024-03-19T19:13:51.162Z,34.76
2024-03-19T19:16:17.645Z,34.50
2024-03-19T19:18:44.062Z,34.31
2024-03-19T19:21:10.293Z,34.12
2024-03-19T19:23:36.736Z,34.23
2024-03-19T19:26:03.115Z,34.28
2024-03-19T19:28:29.390Z,34.40
2024-03-19T19:30:55.665Z,34.36
2024-03-19T19:33:22.107Z,34.14
2024-03-19T19:35:48.514Z,34.07
2024-03-19T19:38:14.789Z,34.05
2024-03-19T19:40:41.176Z,34.23
2024-03-19T19:43:07.515Z,34.51
2024-03-19T19:45:33.799Z,34.74
2024-03-19T19:48:00.137Z,34.92
2024-03-19T19:50:26.361Z,34.91
2024-03-19T19:52:52.640Z,34.62
2024-03-19T19:55:18.932Z,34.45
2024-03-19T19:57:45.304Z,34.50
2024-03-19T20:00:11.716Z,34.50
2024-03-19T20:02:38.232Z,34.60
2024-03-19T20:05:05.885Z,34.71
2024-03-19T20:07:31.026Z,34.79
2024-03-19T20:09:57.402Z,34.88
2024-03-19T20:12:23.647Z,34.93
2024-03-19T20:14:50.085Z,34.95
2024-03-19T20:17:16.524Z,34.76
2024-03-19T20:19:42.955Z,34.56
2024-03-19T20:22:09.437Z,34.49
2024-03-19T20:24:35.916Z,34.44
2024-03-19T20:27:02.361Z,34.58
2024-03-19T20:29:28.579Z,34.65
2024-03-19T20:31:54.942Z,34.82
2024-03-19T20:34:21.451Z,34.96
2024-03-19T20:36:47.814Z,35.07
2024-03-19T20:39:14.156Z,35.12
2024-03-19T20:41:40.602Z,35.15
2024-03-19T20:44:06.998Z,35.17
2024-03-19T20:46:36.104Z,35.23
2024-03-19T20:49:02.569Z,35.23
2024-03-19T20:51:31.182Z,35.26
2024-03-19T20:53:55.148Z,35.29
2024-03-19T20:56:21.441Z,35.34
2024-03-19T20:58:47.857Z,35.10
2024-03-19T21:01:14.188Z,34.84
2024-03-19T21:03:40.616Z,34.73
2024-03-19T21:06:06.905Z,34.65
2024-03-19T21:08:33.168Z,34.46
2024-03-19T21:10:59.435Z,34.31
2024-03-19T21:13:25.835Z,34.36
2024-03-19T21:15:52.267Z,34.72
2024-03-19T21:18:18.572Z,34.82
2024-03-19T21:20:44.797Z,34.95
2024-03-19T21:23:11.107Z,34.98
2024-03-19T21:25:37.404Z,35.08
2024-03-19T21:28:03.662Z,35.20
2024-03-19T21:30:30.043Z,35.25
2024-03-19T21:32:56.599Z,35.28
2024-03-19T21:35:22.927Z,35.40
2024-03-19T21:37:49.180Z,35.50
2024-03-19T21:40:15.497Z,35.39
2024-03-19T21:42:41.900Z,35.18
2024-03-19T21:47:34.457Z,34.95
2024-03-19T21:50:00.790Z,35.05
2024-03-19T21:52:27.068Z,35.10
2024-03-19T21:54:53.448Z,34.91
2024-03-19T21:57:19.772Z,34.66
2024-03-19T21:59:46.121Z,34.60
2024-03-19T22:02:12.538Z,34.61
2024-03-19T22:04:38.987Z,34.71
2024-03-19T22:07:05.272Z,34.89
2024-03-19T22:09:31.583Z,34.96
2024-03-19T22:11:57.953Z,35.01
2024-03-19T22:14:24.243Z,35.14
2024-03-19T22:16:50.633Z,35.23
2024-03-19T22:19:16.911Z,35.32
2024-03-19T22:21:43.184Z,35.40
2024-03-19T22:24:09.504Z,35.16
2024-03-19T22:26:35.830Z,34.87
2024-03-19T22:29:02.132Z,34.63
2024-03-19T22:31:28.435Z,34.51
2024-03-19T22:33:54.695Z,34.57
2024-03-19T22:36:21.163Z,34.67
2024-03-19T22:38:47.448Z,34.77
2024-03-19T22:41:13.826Z,34.93
2024-03-19T22:43:40.265Z,35.02
2024-03-19T22:46:06.769Z,35.01
2024-03-19T22:48:33.131Z,34.83
2024-03-19T22:50:59.569Z,34.57
2024-03-19T22:53:25.887Z,34.53
2024-03-19T22:55:52.217Z,34.56
2024-03-19T22:58:18.548Z,34.75
2024-03-19T23:00:44.836Z,34.97
2024-03-19T23:03:11.112Z,35.23
2024-03-19T23:05:37.433Z,35.29
2024-03-19T23:08:03.692Z,35.03
2024-03-19T23:10:30.102Z,34.77
2024-03-19T23:12:56.429Z,34.67
2024-03-19T23:15:22.948Z,34.61
2024-03-19T23:17:49.189Z,34.81
2024-03-19T23:20:15.648Z,34.93
2024-03-19T23:22:42.068Z,35.04
2024-03-19T23:25:08.534Z,35.14
2024-03-19T23:27:34.757Z,35.18
2024-03-19T23:30:01.136Z,35.21
2024-03-19T23:32:27.597Z,35.31
2024-03-19T23:34:54.031Z,35.37
2024-03-19T23:37:20.459Z,35.27
2024-03-19T23:39:46.765Z,34.95
2024-03-19T23:42:13.221Z,34.78
2024-03-19T23:44:39.508Z,34.75
2024-03-19T23:47:05.883Z,34.82
2024-03-19T23:49:32.324Z,35.00
2024-03-19T23:52:01.045Z,35.17
2024-03-19T23:54:27.330Z,35.40
2024-03-19T23:56:53.607Z,35.56
2024-03-19T23:59:20.018Z,35.64
